Time;durP1;ratioP1;P1;durP2;ratioP2;P2;SDS_P1;SDS_P2;PMS_P1;PMS_P2;Temp;Humidity;BMP_temperature;BMP_pressure;BME280_temperature;BME280_humidity;BME280_pressure;Samples;Min_cycle;Max_cycle;Signal;HPM_P1;HPM_P2
2022/11/01 00:02:16;;;;;;;36.90;17.30;;;;;;;;;;106474;1313;22124;-80
2022/11/01 00:04:41;;;;;;;37.10;17.10;;;;;;;;;;106576;1312;21999;-80
2022/11/01 00:07:07;;;;;;;29.30;14.80;;;;;;;;;;106571;1305;22492;-80
2022/11/01 00:09:33;;;;;;;29.00;14.80;;;;;;;;;;106563;1313;21961;-80
2022/11/01 00:11:59;;;;;;;32.80;16.40;;;;;;;;;;106354;1313;22047;-80
2022/11/01 00:14:25;;;;;;;34.40;16.70;;;;;;;;;;106689;1312;22156;-80
2022/11/01 00:16:51;;;;;;;34.10;16.90;;;;;;;;;;106598;1305;22032;-80
2022/11/01 00:19:17;;;;;;;37.70;18.30;;;;;;;;;;106572;1313;22707;-80
2022/11/01 00:21:43;;;;;;;38.60;19.10;;;;;;;;;;106596;1313;22674;-80
2022/11/01 00:24:09;;;;;;;36.90;19.40;;;;;;;;;;106478;1313;22278;-80
2022/11/01 00:26:34;;;;;;;34.00;17.60;;;;;;;;;;106470;1307;22344;-80
2022/11/01 00:29:00;;;;;;;35.20;16.60;;;;;;;;;;106525;1313;22130;-80
2022/11/01 00:31:26;;;;;;;28.60;16.00;;;;;;;;;;106552;1312;22644;-80
2022/11/01 00:33:52;;;;;;;31.00;15.80;;;;;;;;;;106537;1313;22065;-80
2022/11/01 00:36:18;;;;;;;30.00;15.50;;;;;;;;;;106611;1296;21947;-80
2022/11/01 00:38:47;;;;;;;31.00;16.00;;;;;;;;;;106586;1310;22059;-80
2022/11/01 00:41:14;;;;;;;30.20;15.40;;;;;;;;;;106475;1313;22091;-81
2022/11/01 00:43:40;;;;;;;33.90;16.80;;;;;;;;;;106363;1314;22125;-81
2022/11/01 00:46:06;;;;;;;31.20;15.60;;;;;;;;;;106864;1298;22821;-80
2022/11/01 00:48:32;;;;;;;32.40;15.80;;;;;;;;;;106619;1313;22120;-81
2022/11/01 00:50:57;;;;;;;29.30;15.50;;;;;;;;;;106598;1311;22052;-80
2022/11/01 00:53:23;;;;;;;28.60;16.20;;;;;;;;;;106674;1304;22095;-80
2022/11/01 00:55:49;;;;;;;37.10;15.70;;;;;;;;;;106589;1313;22113;-80
2022/11/01 00:58:15;;;;;;;32.00;17.00;;;;;;;;;;106765;1307;22089;-80
2022/11/01 01:00:41;;;;;;;32.20;16.90;;;;;;;;;;106759;1310;21986;-80
2022/11/01 01:03:07;;;;;;;28.50;15.40;;;;;;;;;;106856;1307;21860;-80
2022/11/01 01:05:34;;;;;;;32.60;15.60;;;;;;;;;;106717;1309;22062;-80
2022/11/01 01:08:01;;;;;;;29.40;15.20;;;;;;;;;;106737;1309;22123;-80
2022/11/01 01:10:27;;;;;;;31.20;15.70;;;;;;;;;;106728;1307;22079;-80
2022/11/01 01:12:53;;;;;;;29.50;16.10;;;;;;;;;;106833;1307;22110;-80
2022/11/01 01:15:19;;;;;;;28.90;15.50;;;;;;;;;;106792;1307;22058;-80
2022/11/01 01:17:44;;;;;;;29.40;15.90;;;;;;;;;;106906;1307;22025;-80
2022/11/01 01:20:10;;;;;;;32.00;16.20;;;;;;;;;;106724;1307;21957;-80
2022/11/01 01:22:36;;;;;;;33.80;16.90;;;;;;;;;;106847;1310;22089;-80
2022/11/01 01:25:02;;;;;;;30.20;16.40;;;;;;;;;;106838;1299;21937;-80
2022/11/01 01:27:28;;;;;;;30.10;16.40;;;;;;;;;;106720;1310;22102;-80
2022/11/01 01:29:54;;;;;;;28.90;15.80;;;;;;;;;;106848;1308;22035;-80
2022/11/01 01:32:21;;;;;;;28.50;15.90;;;;;;;;;;106652;1310;22135;-80
2022/11/01 01:34:47;;;;;;;32.30;16.10;;;;;;;;;;106689;1307;22781;-80
2022/11/01 01:37:14;;;;;;;28.30;14.60;;;;;;;;;;106663;1307;22119;-80
2022/11/01 01:39:40;;;;;;;31.70;16.00;;;;;;;;;;106786;1307;22209;-80
2022/11/01 01:42:18;;;;;;;30.60;15.40;;;;;;;;;;106828;1304;22819;-80
2022/11/01 01:44:50;;;;;;;28.30;14.50;;;;;;;;;;106664;1310;22656;-80
2022/11/01 01:47:26;;;;;;;28.90;16.60;;;;;;;;;;106643;1310;21990;-80
2022/11/01 01:49:59;;;;;;;27.10;14.40;;;;;;;;;;106659;1310;22085;-80
2022/11/01 01:52:26;;;;;;;31.80;14.30;;;;;;;;;;106713;1309;22102;-80
2022/11/01 01:54:52;;;;;;;28.00;13.60;;;;;;;;;;106761;1307;22126;-80
2022/11/01 01:57:19;;;;;;;30.20;13.50;;;;;;;;;;106858;1307;22076;-80
2022/11/01 01:59:45;;;;;;;26.90;13.40;;;;;;;;;;106924;1307;22217;-80
2022/11/01 02:02:11;;;;;;;25.90;12.80;;;;;;;;;;106717;1307;22802;-80
2022/11/01 02:04:43;;;;;;;33.30;14.70;;;;;;;;;;106661;1310;22055;-80
2022/11/01 02:07:09;;;;;;;28.60;14.70;;;;;;;;;;106654;1305;22883;-80
2022/11/01 02:09:36;;;;;;;32.20;15.30;;;;;;;;;;106827;1308;22135;-80
2022/11/01 02:12:02;;;;;;;33.90;16.30;;;;;;;;;;106685;1304;22123;-80
2022/11/01 02:14:28;;;;;;;29.40;15.70;;;;;;;;;;106683;1309;21905;-80
2022/11/01 02:16:59;;;;;;;29.60;15.80;;;;;;;;;;106760;1308;22484;-80
2022/11/01 02:19:37;;;;;;;27.30;14.70;;;;;;;;;;106762;1310;22066;-80
2022/11/01 02:22:06;;;;;;;26.00;13.80;;;;;;;;;;106874;1304;22410;-80
2022/11/01 02:24:46;;;;;;;26.00;13.50;;;;;;;;;;106834;1309;22075;-80
2022/11/01 02:27:31;;;;;;;24.70;13.00;;;;;;;;;;106707;1309;22060;-80
2022/11/01 02:30:17;;;;;;;25.50;14.10;;;;;;;;;;106717;1310;22091;-80
2022/11/01 02:32:55;;;;;;;25.10;12.10;;;;;;;;;;106637;1310;22054;-80
2022/11/01 02:35:40;;;;;;;23.10;11.60;;;;;;;;;;106736;1310;22110;-80
2022/11/01 02:38:08;;;;;;;25.40;11.90;;;;;;;;;;106746;1308;22093;-80
2022/11/01 02:40:40;;;;;;;21.90;11.50;;;;;;;;;;106767;1310;21971;-80
2022/11/01 02:43:09;;;;;;;21.90;12.20;;;;;;;;;;106852;1299;22729;-80
2022/11/01 02:45:40;;;;;;;24.40;11.50;;;;;;;;;;106638;1310;22050;-80
2022/11/01 02:48:07;;;;;;;25.70;12.50;;;;;;;;;;106651;1298;23092;-80
2022/11/01 02:50:40;;;;;;;23.40;11.70;;;;;;;;;;106704;1310;22128;-80
2022/11/01 02:53:06;;;;;;;25.30;12.30;;;;;;;;;;106708;1310;22075;-80
2022/11/01 02:55:34;;;;;;;25.20;12.20;;;;;;;;;;106711;1302;22111;-80
2022/11/01 02:58:02;;;;;;;24.00;11.90;;;;;;;;;;106754;1310;21962;-80
2022/11/01 03:00:30;;;;;;;25.20;11.80;;;;;;;;;;106740;1310;22116;-80
2022/11/01 03:03:08;;;;;;;21.80;11.80;;;;;;;;;;106754;1307;22078;-80
2022/11/01 03:05:44;;;;;;;22.90;11.50;;;;;;;;;;106726;1308;21985;-80
2022/11/01 03:08:12;;;;;;;26.70;13.50;;;;;;;;;;106627;1313;22114;-80
2022/11/01 03:10:47;;;;;;;23.90;13.60;;;;;;;;;;106704;1310;22099;-80
2022/11/01 03:13:14;;;;;;;27.30;14.00;;;;;;;;;;106686;1310;22713;-81
2022/11/01 03:15:46;;;;;;;27.30;14.10;;;;;;;;;;106681;1297;22140;-80
2022/11/01 03:18:18;;;;;;;31.00;14.80;;;;;;;;;;106841;1310;22129;-80
2022/11/01 03:20:50;;;;;;;27.30;13.80;;;;;;;;;;106630;1313;22777;-80
2022/11/01 03:23:25;;;;;;;27.80;13.80;;;;;;;;;;106685;1313;22075;-80
2022/11/01 03:25:55;;;;;;;26.10;12.50;;;;;;;;;;106594;1313;21974;-80
2022/11/01 03:28:34;;;;;;;21.50;10.10;;;;;;;;;;106603;1313;22008;-80
2022/11/01 03:31:06;;;;;;;23.60;10.20;;;;;;;;;;106678;1310;21958;-80
2022/11/01 03:33:34;;;;;;;23.90;11.10;;;;;;;;;;106626;1309;22042;-81
2022/11/01 03:36:02;;;;;;;26.70;10.60;;;;;;;;;;106620;1313;22072;-80
2022/11/01 03:38:32;;;;;;;21.80;10.40;;;;;;;;;;106688;1312;22077;-80
2022/11/01 03:41:03;;;;;;;20.90;10.50;;;;;;;;;;106732;1310;22536;-80
2022/11/01 03:43:31;;;;;;;23.30;9.90;;;;;;;;;;106591;1312;22096;-80
2022/11/01 03:45:58;;;;;;;19.00;8.80;;;;;;;;;;106709;1315;22161;-80
2022/11/01 03:48:24;;;;;;;17.00;8.50;;;;;;;;;;106623;1312;22134;-80
2022/11/01 03:50:51;;;;;;;19.30;8.20;;;;;;;;;;106886;1303;22220;-80
2022/11/01 03:53:18;;;;;;;19.70;7.40;;;;;;;;;;106667;1310;22104;-80
2022/11/01 03:55:45;;;;;;;16.70;7.10;;;;;;;;;;106707;1310;22065;-80
2022/11/01 03:58:12;;;;;;;17.80;6.50;;;;;;;;;;106711;1309;22155;-79
2022/11/01 04:00:41;;;;;;;15.30;7.40;;;;;;;;;;106723;1310;22188;-80
2022/11/01 04:03:09;;;;;;;17.80;7.50;;;;;;;;;;106725;1309;22076;-80
2022/11/01 04:05:37;;;;;;;13.50;6.60;;;;;;;;;;106722;1309;22753;-79
2022/11/01 04:08:05;;;;;;;12.70;5.80;;;;;;;;;;106649;1310;22414;-79
2022/11/01 04:10:32;;;;;;;13.00;4.60;;;;;;;;;;106689;1309;22130;-79
2022/11/01 04:13:01;;;;;;;11.50;4.60;;;;;;;;;;106680;1310;22706;-79
2022/11/01 04:21:13;;;;;;;12.50;4.70;;;;;;;;;;106702;1310;22911;-80
2022/11/01 04:23:42;;;;;;;10.90;4.60;;;;;;;;;;106633;1310;22062;-79
2022/11/01 04:26:12;;;;;;;11.50;5.10;;;;;;;;;;106656;1310;22125;-79
2022/11/01 04:28:43;;;;;;;11.80;4.50;;;;;;;;;;106479;1310;22058;-79
2022/11/01 04:31:12;;;;;;;10.70;5.10;;;;;;;;;;106640;1310;22358;-79
2022/11/01 04:33:40;;;;;;;13.20;5.30;;;;;;;;;;106738;1310;22082;-78
2022/11/01 04:36:08;;;;;;;12.50;5.30;;;;;;;;;;106737;1310;22519;-79
2022/11/01 04:38:37;;;;;;;13.90;6.40;;;;;;;;;;106682;1310;21976;-79
2022/11/01 04:41:06;;;;;;;10.80;5.20;;;;;;;;;;106676;1310;22156;-79
2022/11/01 04:43:34;;;;;;;11.70;4.40;;;;;;;;;;106862;1310;22066;-79
2022/11/01 04:46:02;;;;;;;11.10;4.10;;;;;;;;;;106696;1310;22150;-78
2022/11/01 04:48:31;;;;;;;9.00;3.90;;;;;;;;;;106676;1302;22810;-79
2022/11/01 04:51:01;;;;;;;9.30;3.90;;;;;;;;;;106696;1310;22139;-79
2022/11/01 04:53:30;;;;;;;8.00;3.20;;;;;;;;;;106655;1310;22103;-79
2022/11/01 04:55:58;;;;;;;9.70;3.40;;;;;;;;;;106699;1310;22317;-79
2022/11/01 04:58:26;;;;;;;8.00;3.30;;;;;;;;;;106621;1310;22804;-79
2022/11/01 05:00:55;;;;;;;9.40;3.20;;;;;;;;;;106687;1310;22105;-79
2022/11/01 05:03:24;;;;;;;9.20;3.00;;;;;;;;;;106702;1310;22800;-78
2022/11/01 05:05:53;;;;;;;8.00;3.10;;;;;;;;;;106671;1309;22674;-78
2022/11/01 05:08:22;;;;;;;7.50;3.20;;;;;;;;;;106624;1309;22750;-78
2022/11/01 05:17:47;;;;;;;9.10;2.80;;;;;;;;;;100411;1338;544895;-83
2022/11/01 05:20:14;;;;;;;10.10;2.80;;;;;;;;;;102550;1317;22487;-82
2022/11/01 05:22:40;;;;;;;10.30;3.10;;;;;;;;;;102429;1320;24334;-78
2022/11/01 05:25:08;;;;;;;7.70;3.20;;;;;;;;;;102405;1319;24254;-81
2022/11/01 05:27:37;;;;;;;7.60;2.90;;;;;;;;;;102607;1317;25394;-82
2022/11/01 05:30:04;;;;;;;7.90;2.40;;;;;;;;;;102318;1319;22495;-83
2022/11/01 05:32:31;;;;;;;8.90;2.20;;;;;;;;;;102500;1316;137503;-87
2022/11/01 05:34:58;;;;;;;5.90;2.30;;;;;;;;;;102510;1317;22475;-83
2022/11/01 05:37:24;;;;;;;6.30;2.50;;;;;;;;;;102623;1316;25289;-83
2022/11/01 05:39:50;;;;;;;11.10;2.80;;;;;;;;;;102737;1314;22508;-85
2022/11/01 05:42:17;;;;;;;8.00;3.00;;;;;;;;;;102730;1315;22561;-80
2022/11/01 05:44:44;;;;;;;8.00;2.50;;;;;;;;;;103025;1313;22471;-86
2022/11/01 05:47:11;;;;;;;8.50;2.40;;;;;;;;;;103092;1305;24609;-82
2022/11/01 05:49:37;;;;;;;7.70;2.80;;;;;;;;;;102927;1313;22473;-86
2022/11/01 05:52:04;;;;;;;7.70;2.60;;;;;;;;;;103048;1303;24332;-80
2022/11/01 05:54:30;;;;;;;10.30;2.80;;;;;;;;;;102990;1311;22841;-86
2022/11/01 05:56:57;;;;;;;8.00;2.80;;;;;;;;;;102918;1313;21779;-83
2022/11/01 05:59:24;;;;;;;6.80;2.80;;;;;;;;;;102925;1313;24298;-80
2022/11/01 06:01:50;;;;;;;8.80;3.10;;;;;;;;;;102866;1309;22920;-86
2022/11/01 06:04:17;;;;;;;9.10;3.10;;;;;;;;;;102924;1308;24336;-81
2022/11/01 06:06:43;;;;;;;9.70;3.80;;;;;;;;;;102961;1313;24968;-80
2022/11/01 06:09:10;;;;;;;10.10;3.50;;;;;;;;;;103022;1298;24041;-84
2022/11/01 06:11:36;;;;;;;9.70;4.10;;;;;;;;;;103022;1313;23306;-83
2022/11/01 06:14:03;;;;;;;9.30;3.80;;;;;;;;;;103067;1312;22470;-81
2022/11/01 06:16:30;;;;;;;11.30;4.90;;;;;;;;;;102819;1316;25319;-83
2022/11/01 06:18:56;;;;;;;14.70;5.70;;;;;;;;;;102949;1313;24678;-79
2022/11/01 06:21:23;;;;;;;10.00;4.00;;;;;;;;;;102865;1313;22433;-80
2022/11/01 06:23:49;;;;;;;10.30;4.20;;;;;;;;;;102842;1313;25405;-84
2022/11/01 06:26:17;;;;;;;10.70;4.50;;;;;;;;;;102951;1313;24871;-79
2022/11/01 06:28:44;;;;;;;10.10;4.30;;;;;;;;;;102893;1313;25716;-80
2022/11/01 06:31:11;;;;;;;11.20;4.80;;;;;;;;;;102898;1313;22460;-86
2022/11/01 06:33:38;;;;;;;12.90;5.40;;;;;;;;;;102944;1316;22479;-84
2022/11/01 06:36:05;;;;;;;11.40;5.20;;;;;;;;;;102945;1313;22478;-85
2022/11/01 06:38:32;;;;;;;12.20;4.90;;;;;;;;;;102956;1313;22499;-85
2022/11/01 06:40:58;;;;;;;15.00;6.30;;;;;;;;;;102931;1313;24247;-83
2022/11/01 06:43:25;;;;;;;11.60;5.80;;;;;;;;;;102914;1313;22509;-83
2022/11/01 06:45:52;;;;;;;12.70;6.90;;;;;;;;;;102869;1313;24249;-86
2022/11/01 06:48:18;;;;;;;15.90;7.60;;;;;;;;;;102827;1313;22538;-80
2022/11/01 06:50:45;;;;;;;16.70;7.50;;;;;;;;;;102919;1313;25701;-84
2022/11/01 06:53:11;;;;;;;15.80;7.40;;;;;;;;;;103272;1301;23899;-86
2022/11/01 06:55:38;;;;;;;12.80;5.90;;;;;;;;;;103115;1313;24000;-85
2022/11/01 06:58:05;;;;;;;13.50;7.00;;;;;;;;;;102987;1313;23925;-84
2022/11/01 07:00:32;;;;;;;13.50;6.60;;;;;;;;;;102985;1313;22466;-78
2022/11/01 07:03:05;;;;;;;14.80;7.10;;;;;;;;;;103060;1313;24337;-80
2022/11/01 07:05:33;;;;;;;15.10;6.90;;;;;;;;;;103040;1313;22471;-82
2022/11/01 07:08:00;;;;;;;13.80;6.40;;;;;;;;;;103017;1313;24244;-85
2022/11/01 07:10:27;;;;;;;15.40;6.50;;;;;;;;;;103273;1312;22543;-82
2022/11/01 07:12:58;;;;;;;14.90;6.80;;;;;;;;;;103062;1313;25245;-80
2022/11/01 07:15:24;;;;;;;12.50;6.00;;;;;;;;;;103196;1310;25368;-81
2022/11/01 07:18:02;;;;;;;12.60;6.60;;;;;;;;;;103034;1313;25582;-83
2022/11/01 07:20:30;;;;;;;13.90;6.00;;;;;;;;;;103075;1313;25482;-85
2022/11/01 07:22:58;;;;;;;11.20;5.70;;;;;;;;;;103031;1313;22947;-79
2022/11/01 07:25:26;;;;;;;11.20;5.20;;;;;;;;;;103110;1299;26477;-82
2022/11/01 07:27:53;;;;;;;12.70;4.80;;;;;;;;;;103265;1298;22533;-79
2022/11/01 07:30:20;;;;;;;12.10;5.40;;;;;;;;;;103080;1313;22484;-85
2022/11/01 07:32:47;;;;;;;11.70;4.80;;;;;;;;;;104268;1305;22363;-79
2022/11/01 07:35:14;;;;;;;10.70;4.90;;;;;;;;;;103248;1284;24750;-80
2022/11/01 07:37:41;;;;;;;11.20;7.20;;;;;;;;;;103261;1290;22464;-80
2022/11/01 07:40:09;;;;;;;10.70;5.00;;;;;;;;;;103448;1298;22547;-79
2022/11/01 07:42:40;;;;;;;10.10;4.70;;;;;;;;;;103640;1291;25271;-80
2022/11/01 07:45:11;;;;;;;10.90;5.40;;;;;;;;;;103287;1298;22528;-80
2022/11/01 07:47:38;;;;;;;10.80;4.80;;;;;;;;;;103668;1291;24240;-83
2022/11/01 07:50:08;;;;;;;11.00;4.60;;;;;;;;;;104027;1285;22851;-79
2022/11/01 07:52:36;;;;;;;9.80;4.60;;;;;;;;;;103993;1304;22468;-80
2022/11/01 07:55:03;;;;;;;10.20;4.10;;;;;;;;;;104144;1310;24336;-79
2022/11/01 07:57:29;;;;;;;10.90;4.50;;;;;;;;;;103953;1307;22497;-81
2022/11/01 07:59:56;;;;;;;9.90;4.20;;;;;;;;;;103635;1284;22416;-80
2022/11/01 08:02:23;;;;;;;9.80;3.50;;;;;;;;;;103708;1311;22462;-79
2022/11/01 08:04:50;;;;;;;9.30;3.90;;;;;;;;;;103678;1313;22462;-85
2022/11/01 08:07:17;;;;;;;11.10;3.60;;;;;;;;;;103525;1298;22469;-84
2022/11/01 08:09:44;;;;;;;7.90;3.70;;;;;;;;;;103359;1310;22469;-80
2022/11/01 08:12:11;;;;;;;9.70;3.60;;;;;;;;;;103576;1307;24246;-86
2022/11/01 08:14:37;;;;;;;8.40;3.40;;;;;;;;;;103536;1310;22445;-84
2022/11/01 08:17:04;;;;;;;6.90;3.40;;;;;;;;;;103556;1307;22588;-79
2022/11/01 08:19:31;;;;;;;9.10;3.80;;;;;;;;;;103568;1288;24202;-80
2022/11/01 08:21:58;;;;;;;8.40;3.30;;;;;;;;;;103543;1292;22461;-85
2022/11/01 08:24:26;;;;;;;9.10;3.70;;;;;;;;;;103448;1310;22836;-83
2022/11/01 08:26:53;;;;;;;9.30;3.70;;;;;;;;;;103305;1296;22526;-82
2022/11/01 08:29:20;;;;;;;9.10;3.90;;;;;;;;;;103406;1295;22477;-78
2022/11/01 08:31:48;;;;;;;11.30;4.50;;;;;;;;;;103540;1304;25349;-82
2022/11/01 08:34:14;;;;;;;9.00;4.10;;;;;;;;;;103583;1310;22477;-79
2022/11/01 08:36:41;;;;;;;8.60;3.90;;;;;;;;;;103357;1307;24620;-84
2022/11/01 08:39:08;;;;;;;8.10;3.70;;;;;;;;;;103406;1310;24543;-83
2022/11/01 08:41:35;;;;;;;9.40;3.50;;;;;;;;;;103477;1307;22507;-80
2022/11/01 08:44:02;;;;;;;9.20;3.90;;;;;;;;;;103492;1306;22738;-86
2022/11/01 08:46:29;;;;;;;11.20;4.00;;;;;;;;;;103391;1307;25596;-82
2022/11/01 08:48:58;;;;;;;8.50;3.90;;;;;;;;;;103588;1293;25228;-79
2022/11/01 08:51:26;;;;;;;10.10;4.20;;;;;;;;;;103371;1307;24275;-81
2022/11/01 08:53:53;;;;;;;10.20;3.40;;;;;;;;;;103311;1285;24005;-86
2022/11/01 08:56:20;;;;;;;11.90;4.30;;;;;;;;;;103742;1295;24308;-83
2022/11/01 08:58:48;;;;;;;9.70;4.00;;;;;;;;;;103750;1288;22482;-82
2022/11/01 09:01:15;;;;;;;10.40;4.00;;;;;;;;;;103493;1307;24484;-80
2022/11/01 09:03:42;;;;;;;9.40;4.30;;;;;;;;;;103308;1295;25256;-84
2022/11/01 09:06:09;;;;;;;9.40;4.10;;;;;;;;;;103564;1296;24305;-82
2022/11/01 09:08:35;;;;;;;10.50;5.20;;;;;;;;;;103467;1292;24307;-81
2022/11/01 09:11:02;;;;;;;12.00;4.60;;;;;;;;;;103991;1279;24234;-79
2022/11/01 09:13:29;;;;;;;11.20;4.90;;;;;;;;;;103531;1283;21805;-79
2022/11/01 09:15:56;;;;;;;9.30;4.60;;;;;;;;;;103602;1290;22467;-80
2022/11/01 09:18:23;;;;;;;11.00;4.60;;;;;;;;;;103300;1294;22492;-86
2022/11/01 09:20:54;;;;;;;11.80;4.50;;;;;;;;;;103776;1282;22581;-81
2022/11/01 09:23:21;;;;;;;9.70;5.00;;;;;;;;;;103388;1288;25250;-81
2022/11/01 09:25:47;;;;;;;12.10;5.50;;;;;;;;;;103864;1292;22465;-79
2022/11/01 09:28:14;;;;;;;12.90;6.30;;;;;;;;;;103511;1306;23896;-80
2022/11/01 09:30:41;;;;;;;13.50;6.70;;;;;;;;;;103715;1306;22877;-80
2022/11/01 09:33:07;;;;;;;11.60;6.10;;;;;;;;;;103541;1309;22463;-84
2022/11/01 09:35:34;;;;;;;12.60;6.20;;;;;;;;;;103454;1307;22475;-85
2022/11/01 09:38:02;;;;;;;12.70;5.50;;;;;;;;;;103570;1305;22419;-81
2022/11/01 09:40:34;;;;;;;12.20;5.10;;;;;;;;;;103557;1306;22492;-84
2022/11/01 09:43:02;;;;;;;11.10;5.20;;;;;;;;;;103624;1307;22646;-80
2022/11/01 09:45:31;;;;;;;12.30;6.00;;;;;;;;;;103524;1307;25337;-85
2022/11/01 09:48:00;;;;;;;11.30;5.70;;;;;;;;;;103437;1309;24314;-83
2022/11/01 09:50:29;;;;;;;10.10;5.60;;;;;;;;;;103545;1306;22459;-80
2022/11/01 09:52:56;;;;;;;11.50;6.30;;;;;;;;;;103626;1307;22492;-79
2022/11/01 09:55:42;;;;;;;11.90;6.20;;;;;;;;;;103646;1300;22482;-87
2022/11/01 09:58:18;;;;;;;12.00;6.40;;;;;;;;;;103542;1304;24391;-84
2022/11/01 10:00:50;;;;;;;11.30;5.20;;;;;;;;;;103566;1299;22474;-79
2022/11/01 10:03:32;;;;;;;10.80;5.90;;;;;;;;;;103578;1298;21717;-81
2022/11/01 10:06:14;;;;;;;11.80;6.20;;;;;;;;;;103422;1309;22484;-82
2022/11/01 10:09:03;;;;;;;10.30;5.60;;;;;;;;;;103630;1306;24573;-84
2022/11/01 10:11:45;;;;;;;11.70;5.80;;;;;;;;;;103605;1306;22614;-84
2022/11/01 10:14:33;;;;;;;11.50;5.00;;;;;;;;;;103588;1305;22464;-86
2022/11/01 10:17:13;;;;;;;10.60;4.70;;;;;;;;;;103631;1285;22477;-86
2022/11/01 10:19:42;;;;;;;8.90;4.40;;;;;;;;;;103533;1300;22539;-84
2022/11/01 10:22:12;;;;;;;9.00;4.00;;;;;;;;;;103595;1306;24218;-80
2022/11/01 10:24:42;;;;;;;9.60;3.80;;;;;;;;;;103754;1306;22463;-81
2022/11/01 10:27:12;;;;;;;11.00;4.10;;;;;;;;;;103736;1307;22463;-83
2022/11/01 10:29:45;;;;;;;8.30;3.40;;;;;;;;;;103488;1306;24811;-83
2022/11/01 10:32:25;;;;;;;13.50;5.30;;;;;;;;;;103672;1306;25253;-84
2022/11/01 10:34:52;;;;;;;12.80;4.30;;;;;;;;;;103546;1307;25259;-81
2022/11/01 10:37:34;;;;;;;6.70;3.30;;;;;;;;;;103708;1306;22499;-82
2022/11/01 10:40:02;;;;;;;8.60;3.00;;;;;;;;;;103486;1298;23868;-86
2022/11/01 10:42:28;;;;;;;8.70;2.60;;;;;;;;;;103526;1306;25559;-84
2022/11/01 10:44:59;;;;;;;8.90;3.10;;;;;;;;;;103408;1306;23033;-84
2022/11/01 10:47:27;;;;;;;9.10;3.10;;;;;;;;;;103569;1306;22455;-84
2022/11/01 10:49:53;;;;;;;9.30;3.40;;;;;;;;;;103649;1306;24439;-82
2022/11/01 10:52:23;;;;;;;10.00;3.90;;;;;;;;;;103588;1306;24237;-84
2022/11/01 10:54:50;;;;;;;8.10;4.20;;;;;;;;;;103562;1304;22497;-85
2022/11/01 10:57:23;;;;;;;8.90;4.20;;;;;;;;;;103591;1306;22471;-80
2022/11/01 10:59:49;;;;;;;10.00;4.60;;;;;;;;;;103539;1306;22451;-84
2022/11/01 11:02:24;;;;;;;9.40;5.00;;;;;;;;;;103566;1307;24420;-81
2022/11/01 11:04:51;;;;;;;9.70;4.70;;;;;;;;;;103599;1306;25447;-80
2022/11/01 11:07:18;;;;;;;9.30;5.10;;;;;;;;;;103562;1306;25254;-81
2022/11/01 11:09:48;;;;;;;9.80;5.50;;;;;;;;;;103588;1307;22480;-83
2022/11/01 11:12:17;;;;;;;10.20;5.40;;;;;;;;;;103495;1299;23085;-87
2022/11/01 11:14:48;;;;;;;11.00;6.80;;;;;;;;;;103612;1306;25269;-81
2022/11/01 11:17:20;;;;;;;11.30;6.10;;;;;;;;;;103584;1306;25373;-84
2022/11/01 11:19:47;;;;;;;8.70;4.90;;;;;;;;;;103545;1306;22036;-79
2022/11/01 11:22:14;;;;;;;9.80;4.70;;;;;;;;;;103536;1307;23021;-85
2022/11/01 11:24:42;;;;;;;16.10;6.90;;;;;;;;;;103477;1306;22501;-84
2022/11/01 11:27:15;;;;;;;15.60;7.30;;;;;;;;;;103471;1307;22469;-82
2022/11/01 11:29:47;;;;;;;13.10;6.60;;;;;;;;;;103559;1306;22472;-83
2022/11/01 11:32:19;;;;;;;12.80;5.90;;;;;;;;;;103467;1306;24301;-85
2022/11/01 11:34:51;;;;;;;10.70;5.40;;;;;;;;;;103561;1304;22459;-84
2022/11/01 11:37:20;;;;;;;12.00;5.60;;;;;;;;;;103570;1306;23908;-82
2022/11/01 11:40:06;;;;;;;10.80;5.80;;;;;;;;;;103594;1306;22469;-79
2022/11/01 11:42:33;;;;;;;10.50;5.30;;;;;;;;;;102881;1313;22479;-84
2022/11/01 11:45:15;;;;;;;10.20;5.30;;;;;;;;;;102732;1313;23920;-81
2022/11/01 11:47:41;;;;;;;10.30;5.60;;;;;;;;;;102909;1309;24873;-83
2022/11/01 11:50:20;;;;;;;9.70;5.10;;;;;;;;;;102876;1312;25332;-79
2022/11/01 11:52:48;;;;;;;10.40;5.90;;;;;;;;;;103023;1312;22484;-81
2022/11/01 11:55:34;;;;;;;9.80;4.80;;;;;;;;;;102963;1306;22503;-84
2022/11/01 11:58:04;;;;;;;9.60;5.00;;;;;;;;;;102704;1313;26526;-79
2022/11/01 12:00:32;;;;;;;11.70;5.20;;;;;;;;;;103268;1291;22474;-80
2022/11/01 12:03:04;;;;;;;11.40;5.90;;;;;;;;;;103201;1291;23332;-80
2022/11/01 12:05:32;;;;;;;10.70;5.50;;;;;;;;;;103276;1287;22625;-78
2022/11/01 12:07:59;;;;;;;9.20;5.20;;;;;;;;;;102946;1312;23195;-82
2022/11/01 12:10:33;;;;;;;10.70;5.60;;;;;;;;;;103039;1312;25920;-84
2022/11/01 12:13:01;;;;;;;11.20;5.40;;;;;;;;;;102981;1297;24358;-78
2022/11/01 12:15:27;;;;;;;11.70;5.60;;;;;;;;;;103233;1294;22477;-80
2022/11/01 12:17:54;;;;;;;10.50;4.90;;;;;;;;;;103005;1311;25352;-79
2022/11/01 12:20:23;;;;;;;9.40;4.80;;;;;;;;;;103418;1286;24333;-83
2022/11/01 12:22:49;;;;;;;10.30;5.60;;;;;;;;;;106890;1285;22720;-80
2022/11/01 12:25:18;;;;;;;10.70;5.90;;;;;;;;;;106916;1305;22059;-78
2022/11/01 12:27:50;;;;;;;10.30;5.50;;;;;;;;;;106862;1306;22327;-78
2022/11/01 12:30:22;;;;;;;11.50;6.40;;;;;;;;;;106849;1307;22062;-77
2022/11/01 12:32:59;;;;;;;9.90;5.50;;;;;;;;;;107128;1299;22017;-78
2022/11/01 12:35:28;;;;;;;13.00;7.30;;;;;;;;;;106716;1307;22541;-78
2022/11/01 12:37:54;;;;;;;14.00;7.20;;;;;;;;;;107008;1305;22057;-78
2022/11/01 12:40:24;;;;;;;12.80;6.10;;;;;;;;;;106972;1304;22139;-77
2022/11/01 12:42:55;;;;;;;9.60;5.70;;;;;;;;;;107043;1295;22026;-78
2022/11/01 12:45:51;;;;;;;11.50;6.40;;;;;;;;;;107145;1286;23048;-78
2022/11/01 12:48:34;;;;;;;10.10;5.80;;;;;;;;;;106910;1305;22778;-78
2022/11/01 12:51:20;;;;;;;11.40;6.10;;;;;;;;;;106787;1306;22057;-77
2022/11/01 12:54:00;;;;;;;10.80;5.80;;;;;;;;;;107262;1299;22142;-78
2022/11/01 12:56:27;;;;;;;11.90;6.40;;;;;;;;;;106910;1304;22109;-78
2022/11/01 12:58:55;;;;;;;10.20;5.70;;;;;;;;;;106938;1305;23256;-79
2022/11/01 13:01:40;;;;;;;10.30;6.00;;;;;;;;;;106934;1305;22455;-80
2022/11/01 13:04:25;;;;;;;10.60;6.00;;;;;;;;;;106952;1307;22147;-80
2022/11/01 13:07:16;;;;;;;11.80;6.50;;;;;;;;;;106948;1304;22157;-79
2022/11/01 13:10:03;;;;;;;13.10;5.80;;;;;;;;;;106920;1304;22133;-79
2022/11/01 13:12:49;;;;;;;9.10;5.00;;;;;;;;;;106897;1306;22058;-79
2022/11/01 13:15:21;;;;;;;11.90;6.30;;;;;;;;;;106941;1305;22687;-79
2022/11/01 13:18:06;;;;;;;9.80;6.30;;;;;;;;;;106910;1301;22049;-80
2022/11/01 13:20:33;;;;;;;11.80;6.70;;;;;;;;;;107005;1305;22187;-79
2022/11/01 13:23:13;;;;;;;13.60;7.50;;;;;;;;;;107297;1297;22236;-79
2022/11/01 13:25:40;;;;;;;10.10;5.80;;;;;;;;;;106940;1299;22913;-80
2022/11/01 13:28:14;;;;;;;10.10;6.20;;;;;;;;;;106915;1306;22292;-80
2022/11/01 13:30:47;;;;;;;12.70;6.20;;;;;;;;;;106907;1306;22118;-79
2022/11/01 13:33:20;;;;;;;10.30;5.70;;;;;;;;;;106875;1306;22086;-80
2022/11/01 13:36:01;;;;;;;11.40;5.70;;;;;;;;;;106743;1306;22075;-79
2022/11/01 13:38:28;;;;;;;13.40;6.40;;;;;;;;;;107241;1299;22668;-80
2022/11/01 13:40:57;;;;;;;11.30;5.90;;;;;;;;;;107050;1296;22033;-79
2022/11/01 13:43:28;;;;;;;12.50;6.10;;;;;;;;;;107174;1297;22067;-80
2022/11/01 13:45:55;;;;;;;11.90;5.60;;;;;;;;;;106904;1307;22663;-79
2022/11/01 13:48:21;;;;;;;12.30;5.90;;;;;;;;;;106876;1306;22081;-80
2022/11/01 13:51:06;;;;;;;10.20;5.10;;;;;;;;;;106908;1306;22021;-80
2022/11/01 13:53:53;;;;;;;9.00;5.40;;;;;;;;;;107134;1282;21832;-79
2022/11/01 13:56:40;;;;;;;15.30;6.70;;;;;;;;;;106962;1306;22892;-79
2022/11/01 13:59:14;;;;;;;14.20;6.60;;;;;;;;;;107013;1304;22070;-79
2022/11/01 14:01:41;;;;;;;12.50;6.30;;;;;;;;;;106914;1307;22184;-79
2022/11/01 14:04:10;;;;;;;11.10;5.60;;;;;;;;;;107320;1296;22038;-79
2022/11/01 14:06:38;;;;;;;10.30;5.80;;;;;;;;;;106941;1306;22065;-79
2022/11/01 14:09:16;;;;;;;10.80;5.90;;;;;;;;;;106893;1298;22053;-79
2022/11/01 14:11:45;;;;;;;11.20;5.90;;;;;;;;;;106874;1307;22075;-79
2022/11/01 14:14:29;;;;;;;10.80;5.50;;;;;;;;;;106736;1309;22071;-79
2022/11/01 14:17:15;;;;;;;12.00;6.00;;;;;;;;;;106745;1307;22671;-79
2022/11/01 14:19:42;;;;;;;12.80;5.80;;;;;;;;;;106755;1307;22092;-79
2022/11/01 14:22:31;;;;;;;11.50;5.90;;;;;;;;;;106767;1307;22112;-79
2022/11/01 14:25:02;;;;;;;13.30;5.90;;;;;;;;;;106895;1303;22850;-79
2022/11/01 14:27:35;;;;;;;11.20;6.00;;;;;;;;;;106734;1309;22120;-79
2022/11/01 14:30:28;;;;;;;13.70;5.80;;;;;;;;;;106897;1307;22096;-79
2022/11/01 14:32:57;;;;;;;12.50;6.20;;;;;;;;;;106830;1307;22148;-79
2022/11/01 14:35:28;;;;;;;11.70;6.10;;;;;;;;;;106741;1306;22080;-79
2022/11/01 14:37:56;;;;;;;10.90;5.30;;;;;;;;;;106725;1300;23160;-78
2022/11/01 14:40:28;;;;;;;13.00;5.40;;;;;;;;;;106656;1307;22112;-78
2022/11/01 14:42:58;;;;;;;14.30;6.90;;;;;;;;;;106876;1306;22098;-78
2022/11/01 14:45:32;;;;;;;13.60;7.30;;;;;;;;;;106788;1303;22552;-79